sensor_id;sensor_type;location;lat;lon;timestamp;P1;durP1;ratioP1;P2;durP2;ratioP2
76208;SDS011;64990;51.698;-0.292;2023-04-24T00:01:47;43.53;;;23.15;;
76208;SDS011;64990;51.698;-0.292;2023-04-24T00:04:13;47.40;;;25.85;;
76208;SDS011;64990;51.698;-0.292;2023-04-24T00:06:41;46.95;;;22.48;;
76208;SDS011;64990;51.698;-0.292;2023-04-24T00:09:07;38.95;;;21.77;;
76208;SDS011;64990;51.698;-0.292;2023-04-24T00:11:35;56.45;;;23.73;;
76208;SDS011;64990;51.698;-0.292;2023-04-24T00:14:01;38.90;;;21.60;;
76208;SDS011;64990;51.698;-0.292;2023-04-24T00:16:27;47.97;;;21.15;;
76208;SDS011;64990;51.698;-0.292;2023-04-24T00:18:53;51.13;;;22.58;;
76208;SDS011;64990;51.698;-0.292;2023-04-24T00:21:19;39.00;;;22.05;;
76208;SDS011;64990;51.698;-0.292;2023-04-24T00:23:46;38.08;;;20.52;;
76208;SDS011;64990;51.698;-0.292;2023-04-24T00:26:12;39.55;;;20.80;;
76208;SDS011;64990;51.698;-0.292;2023-04-24T00:28:38;39.67;;;20.95;;
76208;SDS011;64990;51.698;-0.292;2023-04-24T00:31:05;36.25;;;20.60;;
76208;SDS011;64990;51.698;-0.292;2023-04-24T00:33:31;45.40;;;21.63;;
76208;SDS011;64990;51.698;-0.292;2023-04-24T00:35:57;44.47;;;23.02;;
76208;SDS011;64990;51.698;-0.292;2023-04-24T00:38:23;36.53;;;19.73;;
76208;SDS011;64990;51.698;-0.292;2023-04-24T00:40:49;33.92;;;17.98;;
76208;SDS011;64990;51.698;-0.292;2023-04-24T00:43:16;33.30;;;18.48;;
76208;SDS011;64990;51.698;-0.292;2023-04-24T00:45:42;38.00;;;19.25;;
76208;SDS011;64990;51.698;-0.292;2023-04-24T00:48:08;39.25;;;21.83;;
76208;SDS011;64990;51.698;-0.292;2023-04-24T00:50:35;32.85;;;17.02;;
76208;SDS011;64990;51.698;-0.292;2023-04-24T00:53:02;43.78;;;20.25;;
76208;SDS011;64990;51.698;-0.292;2023-04-24T00:55:28;39.90;;;21.73;;
76208;SDS011;64990;51.698;-0.292;2023-04-24T00:57:54;44.17;;;22.55;;
76208;SDS011;64990;51.698;-0.292;2023-04-24T01:00:20;38.92;;;19.00;;
76208;SDS011;64990;51.698;-0.292;2023-04-24T01:02:47;35.17;;;20.38;;
76208;SDS011;64990;51.698;-0.292;2023-04-24T01:05:15;33.75;;;17.30;;
76208;SDS011;64990;51.698;-0.292;2023-04-24T01:07:43;32.17;;;18.02;;
76208;SDS011;64990;51.698;-0.292;2023-04-24T01:10:10;38.33;;;19.13;;
76208;SDS011;64990;51.698;-0.292;2023-04-24T01:12:36;37.35;;;19.52;;
76208;SDS011;64990;51.698;-0.292;2023-04-24T01:15:03;35.45;;;19.88;;
76208;SDS011;64990;51.698;-0.292;2023-04-24T01:17:29;37.35;;;18.92;;
76208;SDS011;64990;51.698;-0.292;2023-04-24T01:19:56;42.22;;;19.58;;
76208;SDS011;64990;51.698;-0.292;2023-04-24T01:22:22;37.53;;;18.90;;
76208;SDS011;64990;51.698;-0.292;2023-04-24T01:24:48;49.05;;;22.45;;
76208;SDS011;64990;51.698;-0.292;2023-04-24T01:27:14;36.75;;;20.13;;
76208;SDS011;64990;51.698;-0.292;2023-04-24T01:29:40;49.00;;;20.92;;
76208;SDS011;64990;51.698;-0.292;2023-04-24T01:32:06;36.08;;;19.75;;
76208;SDS011;64990;51.698;-0.292;2023-04-24T01:34:33;48.50;;;19.67;;
76208;SDS011;64990;51.698;-0.292;2023-04-24T01:36:59;55.53;;;20.77;;
76208;SDS011;64990;51.698;-0.292;2023-04-24T01:39:25;43.38;;;21.23;;
76208;SDS011;64990;51.698;-0.292;2023-04-24T01:41:53;37.75;;;19.42;;
76208;SDS011;64990;51.698;-0.292;2023-04-24T01:44:19;43.10;;;19.65;;
76208;SDS011;64990;51.698;-0.292;2023-04-24T01:46:46;44.28;;;20.52;;
76208;SDS011;64990;51.698;-0.292;2023-04-24T01:49:12;39.78;;;21.98;;
76208;SDS011;64990;51.698;-0.292;2023-04-24T01:51:38;38.22;;;20.58;;
76208;SDS011;64990;51.698;-0.292;2023-04-24T01:54:04;37.83;;;21.65;;
76208;SDS011;64990;51.698;-0.292;2023-04-24T01:56:31;45.08;;;21.63;;
76208;SDS011;64990;51.698;-0.292;2023-04-24T01:59:00;40.85;;;21.92;;
76208;SDS011;64990;51.698;-0.292;2023-04-24T02:01:31;41.55;;;20.23;;
76208;SDS011;64990;51.698;-0.292;2023-04-24T02:03:58;37.58;;;20.42;;
76208;SDS011;64990;51.698;-0.292;2023-04-24T02:06:27;43.83;;;20.00;;
76208;SDS011;64990;51.698;-0.292;2023-04-24T02:08:53;33.90;;;20.02;;
76208;SDS011;64990;51.698;-0.292;2023-04-24T02:11:19;43.92;;;19.73;;
76208;SDS011;64990;51.698;-0.292;2023-04-24T02:13:45;47.03;;;21.00;;
76208;SDS011;64990;51.698;-0.292;2023-04-24T02:16:11;36.50;;;20.27;;
76208;SDS011;64990;51.698;-0.292;2023-04-24T02:18:38;42.38;;;20.00;;
76208;SDS011;64990;51.698;-0.292;2023-04-24T02:21:04;39.83;;;21.40;;
76208;SDS011;64990;51.698;-0.292;2023-04-24T02:23:30;38.40;;;19.92;;
76208;SDS011;64990;51.698;-0.292;2023-04-24T02:25:56;35.88;;;19.58;;
76208;SDS011;64990;51.698;-0.292;2023-04-24T02:28:22;33.72;;;17.92;;
76208;SDS011;64990;51.698;-0.292;2023-04-24T02:30:48;31.00;;;15.82;;
76208;SDS011;64990;51.698;-0.292;2023-04-24T02:33:14;34.90;;;17.85;;
76208;SDS011;64990;51.698;-0.292;2023-04-24T02:35:40;32.17;;;17.05;;
76208;SDS011;64990;51.698;-0.292;2023-04-24T02:38:06;34.20;;;16.65;;
76208;SDS011;64990;51.698;-0.292;2023-04-24T02:40:32;33.90;;;17.52;;
76208;SDS011;64990;51.698;-0.292;2023-04-24T02:42:58;34.72;;;15.93;;
76208;SDS011;64990;51.698;-0.292;2023-04-24T02:45:24;30.20;;;15.50;;
76208;SDS011;64990;51.698;-0.292;2023-04-24T02:47:50;26.33;;;11.15;;
76208;SDS011;64990;51.698;-0.292;2023-04-24T02:50:16;22.25;;;9.57;;
76208;SDS011;64990;51.698;-0.292;2023-04-24T02:52:42;23.60;;;10.65;;
76208;SDS011;64990;51.698;-0.292;2023-04-24T02:55:08;20.00;;;10.07;;
76208;SDS011;64990;51.698;-0.292;2023-04-24T02:57:34;20.95;;;8.85;;
76208;SDS011;64990;51.698;-0.292;2023-04-24T03:00:00;22.67;;;8.77;;
76208;SDS011;64990;51.698;-0.292;2023-04-24T03:08:03;17.95;;;9.60;;
76208;SDS011;64990;51.698;-0.292;2023-04-24T03:10:30;23.95;;;10.18;;
76208;SDS011;64990;51.698;-0.292;2023-04-24T03:12:57;17.85;;;9.38;;
76208;SDS011;64990;51.698;-0.292;2023-04-24T03:15:23;22.08;;;11.13;;
76208;SDS011;64990;51.698;-0.292;2023-04-24T03:17:49;20.90;;;9.45;;
76208;SDS011;64990;51.698;-0.292;2023-04-24T03:20:15;20.67;;;10.13;;
76208;SDS011;64990;51.698;-0.292;2023-04-24T03:22:41;22.88;;;9.27;;
76208;SDS011;64990;51.698;-0.292;2023-04-24T03:25:07;24.55;;;12.10;;
76208;SDS011;64990;51.698;-0.292;2023-04-24T03:27:34;21.48;;;11.30;;
76208;SDS011;64990;51.698;-0.292;2023-04-24T03:30:00;39.20;;;12.95;;
76208;SDS011;64990;51.698;-0.292;2023-04-24T03:32:26;20.40;;;11.30;;
76208;SDS011;64990;51.698;-0.292;2023-04-24T03:34:52;25.60;;;10.77;;
76208;SDS011;64990;51.698;-0.292;2023-04-24T03:37:18;25.92;;;9.77;;
76208;SDS011;64990;51.698;-0.292;2023-04-24T03:39:44;21.17;;;9.85;;
76208;SDS011;64990;51.698;-0.292;2023-04-24T03:42:10;26.10;;;10.00;;
76208;SDS011;64990;51.698;-0.292;2023-04-24T03:44:36;27.95;;;11.65;;
76208;SDS011;64990;51.698;-0.292;2023-04-24T03:47:02;28.13;;;10.13;;
76208;SDS011;64990;51.698;-0.292;2023-04-24T03:49:28;20.83;;;9.75;;
76208;SDS011;64990;51.698;-0.292;2023-04-24T03:51:54;22.60;;;10.50;;
76208;SDS011;64990;51.698;-0.292;2023-04-24T03:54:20;24.20;;;9.38;;
76208;SDS011;64990;51.698;-0.292;2023-04-24T03:56:46;21.70;;;9.85;;
76208;SDS011;64990;51.698;-0.292;2023-04-24T03:59:12;20.85;;;9.43;;
76208;SDS011;64990;51.698;-0.292;2023-04-24T04:01:38;32.05;;;9.63;;
76208;SDS011;64990;51.698;-0.292;2023-04-24T04:04:05;25.17;;;9.85;;
76208;SDS011;64990;51.698;-0.292;2023-04-24T04:06:31;22.83;;;9.52;;
76208;SDS011;64990;51.698;-0.292;2023-04-24T04:08:57;25.88;;;9.68;;
76208;SDS011;64990;51.698;-0.292;2023-04-24T04:11:24;22.13;;;9.68;;
76208;SDS011;64990;51.698;-0.292;2023-04-24T04:13:50;23.27;;;11.15;;
76208;SDS011;64990;51.698;-0.292;2023-04-24T04:16:16;32.72;;;9.13;;
76208;SDS011;64990;51.698;-0.292;2023-04-24T04:18:43;21.55;;;9.77;;
76208;SDS011;64990;51.698;-0.292;2023-04-24T04:21:09;19.17;;;6.60;;
76208;SDS011;64990;51.698;-0.292;2023-04-24T04:23:35;15.05;;;7.25;;
76208;SDS011;64990;51.698;-0.292;2023-04-24T04:26:01;23.05;;;8.35;;
76208;SDS011;64990;51.698;-0.292;2023-04-24T04:28:28;14.52;;;5.78;;
76208;SDS011;64990;51.698;-0.292;2023-04-24T04:30:55;14.13;;;6.18;;
76208;SDS011;64990;51.698;-0.292;2023-04-24T04:33:22;18.63;;;5.95;;
76208;SDS011;64990;51.698;-0.292;2023-04-24T04:35:48;14.98;;;7.85;;
76208;SDS011;64990;51.698;-0.292;2023-04-24T04:38:15;20.95;;;6.30;;
76208;SDS011;64990;51.698;-0.292;2023-04-24T04:40:42;20.63;;;6.57;;
76208;SDS011;64990;51.698;-0.292;2023-04-24T04:43:08;15.55;;;6.40;;
76208;SDS011;64990;51.698;-0.292;2023-04-24T04:45:35;14.32;;;7.28;;
76208;SDS011;64990;51.698;-0.292;2023-04-24T04:48:01;20.08;;;7.07;;
76208;SDS011;64990;51.698;-0.292;2023-04-24T04:50:28;16.45;;;5.43;;
76208;SDS011;64990;51.698;-0.292;2023-04-24T04:52:54;17.25;;;6.63;;
76208;SDS011;64990;51.698;-0.292;2023-04-24T04:55:20;15.18;;;6.53;;
76208;SDS011;64990;51.698;-0.292;2023-04-24T04:57:46;19.77;;;5.90;;
76208;SDS011;64990;51.698;-0.292;2023-04-24T05:00:13;15.85;;;8.02;;
76208;SDS011;64990;51.698;-0.292;2023-04-24T05:02:39;33.72;;;9.57;;
76208;SDS011;64990;51.698;-0.292;2023-04-24T05:05:05;20.20;;;6.72;;
76208;SDS011;64990;51.698;-0.292;2023-04-24T05:07:32;16.83;;;7.78;;
76208;SDS011;64990;51.698;-0.292;2023-04-24T05:09:58;18.35;;;5.90;;
76208;SDS011;64990;51.698;-0.292;2023-04-24T05:12:24;24.65;;;8.32;;
76208;SDS011;64990;51.698;-0.292;2023-04-24T05:14:50;27.85;;;9.18;;
76208;SDS011;64990;51.698;-0.292;2023-04-24T05:17:16;14.48;;;6.65;;
76208;SDS011;64990;51.698;-0.292;2023-04-24T05:19:43;20.73;;;5.80;;
76208;SDS011;64990;51.698;-0.292;2023-04-24T05:22:09;29.05;;;6.93;;
76208;SDS011;64990;51.698;-0.292;2023-04-24T05:24:36;15.90;;;4.38;;
76208;SDS011;64990;51.698;-0.292;2023-04-24T05:27:03;21.65;;;5.70;;
76208;SDS011;64990;51.698;-0.292;2023-04-24T05:29:32;14.20;;;5.13;;
76208;SDS011;64990;51.698;-0.292;2023-04-24T05:31:58;18.17;;;5.72;;
76208;SDS011;64990;51.698;-0.292;2023-04-24T05:34:25;17.20;;;4.63;;
76208;SDS011;64990;51.698;-0.292;2023-04-24T05:36:51;34.13;;;6.93;;
76208;SDS011;64990;51.698;-0.292;2023-04-24T05:39:18;16.45;;;6.07;;
76208;SDS011;64990;51.698;-0.292;2023-04-24T05:41:44;12.98;;;5.95;;
76208;SDS011;64990;51.698;-0.292;2023-04-24T05:44:10;22.42;;;6.63;;
76208;SDS011;64990;51.698;-0.292;2023-04-24T05:46:36;23.08;;;6.45;;
76208;SDS011;64990;51.698;-0.292;2023-04-24T05:49:02;27.42;;;6.88;;
76208;SDS011;64990;51.698;-0.292;2023-04-24T05:51:28;17.08;;;5.20;;
76208;SDS011;64990;51.698;-0.292;2023-04-24T05:53:55;12.85;;;6.03;;
76208;SDS011;64990;51.698;-0.292;2023-04-24T05:56:21;18.08;;;4.85;;
76208;SDS011;64990;51.698;-0.292;2023-04-24T05:58:47;12.35;;;5.15;;
76208;SDS011;64990;51.698;-0.292;2023-04-24T06:01:13;9.77;;;4.22;;
76208;SDS011;64990;51.698;-0.292;2023-04-24T06:03:40;12.70;;;5.15;;
76208;SDS011;64990;51.698;-0.292;2023-04-24T06:06:06;13.23;;;4.40;;
76208;SDS011;64990;51.698;-0.292;2023-04-24T06:08:32;12.23;;;4.35;;
76208;SDS011;64990;51.698;-0.292;2023-04-24T06:10:59;10.65;;;5.68;;
76208;SDS011;64990;51.698;-0.292;2023-04-24T06:13:25;11.35;;;4.35;;
76208;SDS011;64990;51.698;-0.292;2023-04-24T06:15:52;23.33;;;5.90;;
76208;SDS011;64990;51.698;-0.292;2023-04-24T06:18:18;27.70;;;6.00;;
76208;SDS011;64990;51.698;-0.292;2023-04-24T06:20:44;18.10;;;4.07;;
76208;SDS011;64990;51.698;-0.292;2023-04-24T06:23:11;14.98;;;5.25;;
76208;SDS011;64990;51.698;-0.292;2023-04-24T06:25:37;10.68;;;3.38;;
76208;SDS011;64990;51.698;-0.292;2023-04-24T06:28:03;12.10;;;3.67;;
76208;SDS011;64990;51.698;-0.292;2023-04-24T06:30:29;14.60;;;3.72;;
76208;SDS011;64990;51.698;-0.292;2023-04-24T06:32:55;9.27;;;3.42;;
76208;SDS011;64990;51.698;-0.292;2023-04-24T06:35:21;20.70;;;5.13;;
76208;SDS011;64990;51.698;-0.292;2023-04-24T06:37:47;27.60;;;4.72;;
76208;SDS011;64990;51.698;-0.292;2023-04-24T06:40:14;7.10;;;3.17;;
76208;SDS011;64990;51.698;-0.292;2023-04-24T06:42:40;15.07;;;3.22;;
76208;SDS011;64990;51.698;-0.292;2023-04-24T06:45:07;10.15;;;3.63;;
76208;SDS011;64990;51.698;-0.292;2023-04-24T06:47:33;17.88;;;4.22;;
76208;SDS011;64990;51.698;-0.292;2023-04-24T06:49:59;10.93;;;3.15;;
76208;SDS011;64990;51.698;-0.292;2023-04-24T06:52:25;20.83;;;4.28;;
76208;SDS011;64990;51.698;-0.292;2023-04-24T06:54:51;7.28;;;2.75;;
76208;SDS011;64990;51.698;-0.292;2023-04-24T06:57:17;9.95;;;2.67;;
76208;SDS011;64990;51.698;-0.292;2023-04-24T06:59:43;10.55;;;3.53;;
76208;SDS011;64990;51.698;-0.292;2023-04-24T07:02:09;16.48;;;4.60;;
76208;SDS011;64990;51.698;-0.292;2023-04-24T07:04:35;12.63;;;4.20;;
76208;SDS011;64990;51.698;-0.292;2023-04-24T07:07:01;12.00;;;2.85;;
76208;SDS011;64990;51.698;-0.292;2023-04-24T07:09:27;16.27;;;3.13;;
76208;SDS011;64990;51.698;-0.292;2023-04-24T07:11:54;12.10;;;4.10;;
76208;SDS011;64990;51.698;-0.292;2023-04-24T07:14:21;6.05;;;2.20;;
76208;SDS011;64990;51.698;-0.292;2023-04-24T07:16:47;8.27;;;3.13;;
76208;SDS011;64990;51.698;-0.292;2023-04-24T07:19:13;7.22;;;2.28;;
76208;SDS011;64990;51.698;-0.292;2023-04-24T07:21:39;13.55;;;4.28;;
76208;SDS011;64990;51.698;-0.292;2023-04-24T07:24:05;15.98;;;3.92;;
76208;SDS011;64990;51.698;-0.292;2023-04-24T07:26:35;11.15;;;2.95;;
76208;SDS011;64990;51.698;-0.292;2023-04-24T07:29:02;3.60;;;1.70;;
76208;SDS011;64990;51.698;-0.292;2023-04-24T07:31:28;14.80;;;3.15;;
76208;SDS011;64990;51.698;-0.292;2023-04-24T07:33:55;14.38;;;2.95;;
76208;SDS011;64990;51.698;-0.292;2023-04-24T07:36:23;9.90;;;2.15;;
76208;SDS011;64990;51.698;-0.292;2023-04-24T07:38:50;11.82;;;2.38;;
76208;SDS011;64990;51.698;-0.292;2023-04-24T07:41:17;5.97;;;2.83;;
76208;SDS011;64990;51.698;-0.292;2023-04-24T07:43:44;10.90;;;2.53;;
76208;SDS011;64990;51.698;-0.292;2023-04-24T07:46:10;8.18;;;2.97;;
76208;SDS011;64990;51.698;-0.292;2023-04-24T07:48:36;5.28;;;2.67;;
76208;SDS011;64990;51.698;-0.292;2023-04-24T07:51:03;8.57;;;2.70;;
76208;SDS011;64990;51.698;-0.292;2023-04-24T07:53:29;12.23;;;2.67;;
76208;SDS011;64990;51.698;-0.292;2023-04-24T07:55:55;13.50;;;3.45;;
76208;SDS011;64990;51.698;-0.292;2023-04-24T07:58:21;8.07;;;3.75;;
76208;SDS011;64990;51.698;-0.292;2023-04-24T08:00:47;14.80;;;2.08;;
76208;SDS011;64990;51.698;-0.292;2023-04-24T08:03:13;9.20;;;2.35;;
76208;SDS011;64990;51.698;-0.292;2023-04-24T08:05:40;6.63;;;2.47;;
76208;SDS011;64990;51.698;-0.292;2023-04-24T08:08:08;10.90;;;3.20;;
76208;SDS011;64990;51.698;-0.292;2023-04-24T08:10:34;11.05;;;2.42;;
76208;SDS011;64990;51.698;-0.292;2023-04-24T08:13:00;6.13;;;1.52;;
76208;SDS011;64990;51.698;-0.292;2023-04-24T08:15:27;6.20;;;2.55;;
76208;SDS011;64990;51.698;-0.292;2023-04-24T08:17:53;9.20;;;2.85;;
76208;SDS011;64990;51.698;-0.292;2023-04-24T08:20:19;8.57;;;2.83;;
76208;SDS011;64990;51.698;-0.292;2023-04-24T08:22:45;7.60;;;3.17;;
76208;SDS011;64990;51.698;-0.292;2023-04-24T08:25:12;10.93;;;2.00;;
76208;SDS011;64990;51.698;-0.292;2023-04-24T08:27:38;7.47;;;2.08;;
76208;SDS011;64990;51.698;-0.292;2023-04-24T08:30:04;9.23;;;2.00;;
76208;SDS011;64990;51.698;-0.292;2023-04-24T08:32:31;3.08;;;2.17;;
76208;SDS011;64990;51.698;-0.292;2023-04-24T08:34:57;8.27;;;2.30;;
76208;SDS011;64990;51.698;-0.292;2023-04-24T08:37:23;6.28;;;2.20;;
76208;SDS011;64990;51.698;-0.292;2023-04-24T08:39:50;6.47;;;2.13;;
76208;SDS011;64990;51.698;-0.292;2023-04-24T08:42:16;5.28;;;1.95;;
76208;SDS011;64990;51.698;-0.292;2023-04-24T08:44:43;10.93;;;2.92;;
76208;SDS011;64990;51.698;-0.292;2023-04-24T08:47:09;5.57;;;2.05;;
76208;SDS011;64990;51.698;-0.292;2023-04-24T08:49:36;4.43;;;2.08;;
76208;SDS011;64990;51.698;-0.292;2023-04-24T08:52:03;8.32;;;2.28;;
76208;SDS011;64990;51.698;-0.292;2023-04-24T08:54:29;3.65;;;1.60;;
76208;SDS011;64990;51.698;-0.292;2023-04-24T08:56:57;13.02;;;2.38;;
76208;SDS011;64990;51.698;-0.292;2023-04-24T08:59:26;12.13;;;2.65;;
76208;SDS011;64990;51.698;-0.292;2023-04-24T09:01:52;7.75;;;1.45;;
76208;SDS011;64990;51.698;-0.292;2023-04-24T09:04:18;11.95;;;2.17;;
76208;SDS011;64990;51.698;-0.292;2023-04-24T09:06:48;4.70;;;2.00;;
76208;SDS011;64990;51.698;-0.292;2023-04-24T09:09:14;3.97;;;2.00;;
76208;SDS011;64990;51.698;-0.292;2023-04-24T09:11:42;8.52;;;2.53;;
76208;SDS011;64990;51.698;-0.292;2023-04-24T09:14:09;2.35;;;1.55;;
76208;SDS011;64990;51.698;-0.292;2023-04-24T09:16:36;10.73;;;1.65;;
76208;SDS011;64990;51.698;-0.292;2023-04-24T09:19:02;8.80;;;2.03;;
76208;SDS011;64990;51.698;-0.292;2023-04-24T09:21:32;13.43;;;3.20;;
76208;SDS011;64990;51.698;-0.292;2023-04-24T09:24:03;3.28;;;1.60;;
76208;SDS011;64990;51.698;-0.292;2023-04-24T09:26:30;5.80;;;2.00;;
76208;SDS011;64990;51.698;-0.292;2023-04-24T09:28:57;5.15;;;1.90;;
76208;SDS011;64990;51.698;-0.292;2023-04-24T09:31:23;10.75;;;2.53;;
76208;SDS011;64990;51.698;-0.292;2023-04-24T09:33:56;9.35;;;2.45;;
76208;SDS011;64990;51.698;-0.292;2023-04-24T09:36:26;4.75;;;2.25;;
76208;SDS011;64990;51.698;-0.292;2023-04-24T09:38:53;9.93;;;3.20;;
76208;SDS011;64990;51.698;-0.292;2023-04-24T09:41:19;13.90;;;2.63;;
76208;SDS011;64990;51.698;-0.292;2023-04-24T09:43:45;6.65;;;1.25;;
76208;SDS011;64990;51.698;-0.292;2023-04-24T09:46:11;9.52;;;2.45;;
76208;SDS011;64990;51.698;-0.292;2023-04-24T09:48:38;4.78;;;2.42;;
76208;SDS011;64990;51.698;-0.292;2023-04-24T09:51:05;12.85;;;2.53;;
76208;SDS011;64990;51.698;-0.292;2023-04-24T09:53:44;7.75;;;2.17;;
76208;SDS011;64990;51.698;-0.292;2023-04-24T09:56:11;7.32;;;2.08;;
76208;SDS011;64990;51.698;-0.292;2023-04-24T09:58:40;7.00;;;2.80;;
76208;SDS011;64990;51.698;-0.292;2023-04-24T10:01:06;11.02;;;2.72;;
76208;SDS011;64990;51.698;-0.292;2023-04-24T10:03:33;2.97;;;2.30;;
76208;SDS011;64990;51.698;-0.292;2023-04-24T10:05:59;3.90;;;1.92;;
76208;SDS011;64990;51.698;-0.292;2023-04-24T10:08:26;11.70;;;2.90;;
76208;SDS011;64990;51.698;-0.292;2023-04-24T10:10:52;7.30;;;2.13;;
76208;SDS011;64990;51.698;-0.292;2023-04-24T10:13:18;10.02;;;1.70;;
76208;SDS011;64990;51.698;-0.292;2023-04-24T10:15:44;6.45;;;2.72;;
76208;SDS011;64990;51.698;-0.292;2023-04-24T10:18:11;8.32;;;2.72;;
76208;SDS011;64990;51.698;-0.292;2023-04-24T10:20:39;3.92;;;2.78;;
76208;SDS011;64990;51.698;-0.292;2023-04-24T10:23:05;7.72;;;2.95;;
76208;SDS011;64990;51.698;-0.292;2023-04-24T10:25:32;5.00;;;3.10;;
76208;SDS011;64990;51.698;-0.292;2023-04-24T10:27:58;8.57;;;3.83;;
76208;SDS011;64990;51.698;-0.292;2023-04-24T10:30:26;4.95;;;3.33;;
76208;SDS011;64990;51.698;-0.292;2023-04-24T10:32:52;12.73;;;6.18;;
76208;SDS011;64990;51.698;-0.292;2023-04-24T10:35:18;11.65;;;5.10;;
76208;SDS011;64990;51.698;-0.292;2023-04-24T10:37:50;11.93;;;5.18;;
76208;SDS011;64990;51.698;-0.292;2023-04-24T10:40:18;8.02;;;5.10;;
76208;SDS011;64990;51.698;-0.292;2023-04-24T10:42:47;12.60;;;4.60;;
76208;SDS011;64990;51.698;-0.292;2023-04-24T10:45:17;15.57;;;5.13;;
76208;SDS011;64990;51.698;-0.292;2023-04-24T10:47:51;18.73;;;4.75;;
76208;SDS011;64990;51.698;-0.292;2023-04-24T10:50:17;12.23;;;6.22;;
76208;SDS011;64990;51.698;-0.292;2023-04-24T10:52:46;11.05;;;4.93;;
76208;SDS011;64990;51.698;-0.292;2023-04-24T10:55:13;9.70;;;4.53;;
76208;SDS011;64990;51.698;-0.292;2023-04-24T10:58:02;14.90;;;4.95;;
76208;SDS011;64990;51.698;-0.292;2023-04-24T11:00:28;11.52;;;4.05;;
76208;SDS011;64990;51.698;-0.292;2023-04-24T11:02:54;8.40;;;3.05;;
76208;SDS011;64990;51.698;-0.292;2023-04-24T11:05:22;5.72;;;2.63;;
76208;SDS011;64990;51.698;-0.292;2023-04-24T11:10:33;6.13;;;2.03;;
76208;SDS011;64990;51.698;-0.292;2023-04-24T11:12:59;6.18;;;3.05;;
76208;SDS011;64990;51.698;-0.292;2023-04-24T11:15:27;15.85;;;3.65;;
76208;SDS011;64990;51.698;-0.292;2023-04-24T11:17:55;8.15;;;2.35;;
76208;SDS011;64990;51.698;-0.292;2023-04-24T11:20:22;6.90;;;2.45;;
76208;SDS011;64990;51.698;-0.292;2023-04-24T11:22:51;3.72;;;2.00;;
76208;SDS011;64990;51.698;-0.292;2023-04-24T11:25:18;5.55;;;2.03;;
76208;SDS011;64990;51.698;-0.292;2023-04-24T11:27:46;6.28;;;2.47;;
76208;SDS011;64990;51.698;-0.292;2023-04-24T11:30:13;7.18;;;1.83;;
76208;SDS011;64990;51.698;-0.292;2023-04-24T11:32:42;7.95;;;2.42;;
76208;SDS011;64990;51.698;-0.292;2023-04-24T11:35:13;3.53;;;2.03;;
76208;SDS011;64990;51.698;-0.292;2023-04-24T11:37:49;10.88;;;3.17;;
76208;SDS011;64990;51.698;-0.292;2023-04-24T11:40:16;8.02;;;2.40;;
76208;SDS011;64990;51.698;-0.292;2023-04-24T11:42:46;6.90;;;2.70;;
76208;SDS011;64990;51.698;-0.292;2023-04-24T11:45:16;5.55;;;2.50;;
76208;SDS011;64990;51.698;-0.292;2023-04-24T11:47:43;13.57;;;2.90;;
76208;SDS011;64990;51.698;-0.292;2023-04-24T11:50:13;5.63;;;2.70;;
76208;SDS011;64990;51.698;-0.292;2023-04-24T11:52:39;10.20;;;3.88;;
76208;SDS011;64990;51.698;-0.292;2023-04-24T11:55:27;27.42;;;3.10;;
76208;SDS011;64990;51.698;-0.292;2023-04-24T11:57:53;5.05;;;2.25;;
76208;SDS011;64990;51.698;-0.292;2023-04-24T12:02:47;9.90;;;3.38;;
76208;SDS011;64990;51.698;-0.292;2023-04-24T12:05:31;6.32;;;3.35;;
76208;SDS011;64990;51.698;-0.292;2023-04-24T12:07:57;10.75;;;4.45;;
76208;SDS011;64990;51.698;-0.292;2023-04-24T12:10:26;11.18;;;3.50;;
76208;SDS011;64990;51.698;-0.292;2023-04-24T12:12:52;11.07;;;3.85;;
76208;SDS011;64990;51.698;-0.292;2023-04-24T12:15:19;8.77;;;4.07;;
76208;SDS011;64990;51.698;-0.292;2023-04-24T12:17:45;6.20;;;2.13;;
76208;SDS011;64990;51.698;-0.292;2023-04-24T12:20:11;10.13;;;2.53;;
76208;SDS011;64990;51.698;-0.292;2023-04-24T12:25:13;3.85;;;2.40;;
76208;SDS011;64990;51.698;-0.292;2023-04-24T12:27:40;6.72;;;2.00;;
76208;SDS011;64990;51.698;-0.292;2023-04-24T12:30:09;6.38;;;2.60;;
76208;SDS011;64990;51.698;-0.292;2023-04-24T12:32:40;7.00;;;1.60;;
76208;SDS011;64990;51.698;-0.292;2023-04-24T12:35:06;17.80;;;2.50;;
76208;SDS011;64990;51.698;-0.292;2023-04-24T12:37:32;7.03;;;2.00;;
76208;SDS011;64990;51.698;-0.292;2023-04-24T12:42:26;10.68;;;3.85;;
76208;SDS011;64990;51.698;-0.292;2023-04-24T12:44:55;8.30;;;2.53;;
76208;SDS011;64990;51.698;-0.292;2023-04-24T12:47:21;14.20;;;2.55;;
76208;SDS011;64990;51.698;-0.292;2023-04-24T12:49:47;7.03;;;2.15;;
76208;SDS011;64990;51.698;-0.292;2023-04-24T12:52:15;10.43;;;3.22;;
76208;SDS011;64990;51.698;-0.292;2023-04-24T12:54:42;5.82;;;2.85;;
76208;SDS011;64990;51.698;-0.292;2023-04-24T12:57:09;6.68;;;3.22;;
76208;SDS011;64990;51.698;-0.292;2023-04-24T12:59:35;5.30;;;2.35;;
76208;SDS011;64990;51.698;-0.292;2023-04-24T13:02:01;6.75;;;2.45;;
76208;SDS011;64990;51.698;-0.292;2023-04-24T13:04:27;12.15;;;3.08;;
76208;SDS011;64990;51.698;-0.292;2023-04-24T13:06:53;7.15;;;1.95;;
76208;SDS011;64990;51.698;-0.292;2023-04-24T13:09:18;3.90;;;1.70;;
76208;SDS011;64990;51.698;-0.292;2023-04-24T13:11:44;8.85;;;2.28;;
76208;SDS011;64990;51.698;-0.292;2023-04-24T13:14:10;7.60;;;2.08;;
76208;SDS011;64990;51.698;-0.292;2023-04-24T13:16:36;6.07;;;1.60;;
76208;SDS011;64990;51.698;-0.292;2023-04-24T13:19:02;5.93;;;2.08;;
76208;SDS011;64990;51.698;-0.292;2023-04-24T13:21:29;10.20;;;3.15;;
76208;SDS011;64990;51.698;-0.292;2023-04-24T13:23:55;5.70;;;1.70;;
76208;SDS011;64990;51.698;-0.292;2023-04-24T13:26:21;3.63;;;1.38;;
76208;SDS011;64990;51.698;-0.292;2023-04-24T13:28:48;4.07;;;1.90;;
76208;SDS011;64990;51.698;-0.292;2023-04-24T13:31:14;5.05;;;2.22;;
76208;SDS011;64990;51.698;-0.292;2023-04-24T13:33:40;7.55;;;2.05;;
76208;SDS011;64990;51.698;-0.292;2023-04-24T13:36:06;2.40;;;1.73;;
76208;SDS011;64990;51.698;-0.292;2023-04-24T13:38:32;5.40;;;2.47;;
76208;SDS011;64990;51.698;-0.292;2023-04-24T13:40:58;9.50;;;2.17;;
76208;SDS011;64990;51.698;-0.292;2023-04-24T13:43:24;10.50;;;2.15;;
76208;SDS011;64990;51.698;-0.292;2023-04-24T13:45:50;8.20;;;1.95;;
76208;SDS011;64990;51.698;-0.292;2023-04-24T13:48:16;4.88;;;2.42;;
76208;SDS011;64990;51.698;-0.292;2023-04-24T13:50:42;5.35;;;2.03;;
76208;SDS011;64990;51.698;-0.292;2023-04-24T13:53:09;4.25;;;1.40;;
76208;SDS011;64990;51.698;-0.292;2023-04-24T13:55:35;3.13;;;1.50;;
76208;SDS011;64990;51.698;-0.292;2023-04-24T13:58:02;4.63;;;1.58;;
76208;SDS011;64990;51.698;-0.292;2023-04-24T14:00:28;3.78;;;1.88;;
76208;SDS011;64990;51.698;-0.292;2023-04-24T14:02:54;3.03;;;1.10;;
76208;SDS011;64990;51.698;-0.292;2023-04-24T14:05:20;3.22;;;1.80;;
76208;SDS011;64990;51.698;-0.292;2023-04-24T14:07:47;8.23;;;2.22;;
76208;SDS011;64990;51.698;-0.292;2023-04-24T14:10:13;5.97;;;1.55;;
76208;SDS011;64990;51.698;-0.292;2023-04-24T14:12:39;5.03;;;2.13;;
76208;SDS011;64990;51.698;-0.292;2023-04-24T14:15:05;7.13;;;2.35;;
76208;SDS011;64990;51.698;-0.292;2023-04-24T14:17:31;5.25;;;3.03;;
76208;SDS011;64990;51.698;-0.292;2023-04-24T14:19:57;4.10;;;2.28;;
76208;SDS011;64990;51.698;-0.292;2023-04-24T14:22:25;4.38;;;1.60;;
76208;SDS011;64990;51.698;-0.292;2023-04-24T14:24:51;4.72;;;2.20;;
76208;SDS011;64990;51.698;-0.292;2023-04-24T14:27:17;6.60;;;2.20;;
76208;SDS011;64990;51.698;-0.292;2023-04-24T14:29:43;4.82;;;1.60;;
76208;SDS011;64990;51.698;-0.292;2023-04-24T14:32:10;2.88;;;1.73;;
76208;SDS011;64990;51.698;-0.292;2023-04-24T14:34:36;2.67;;;1.45;;
76208;SDS011;64990;51.698;-0.292;2023-04-24T14:37:02;4.15;;;2.00;;